sensor_id;sensor_type;location;lat;lon;timestamp;temperature;humidity
14144;DHT22;7152;48.348;10.980;2023-06-19T00:00:19;21.40;76.50
14144;DHT22;7152;48.348;10.980;2023-06-19T00:02:46;21.40;76.90
14144;DHT22;7152;48.348;10.980;2023-06-19T00:05:12;21.30;76.40
14144;DHT22;7152;48.348;10.980;2023-06-19T00:07:38;21.30;76.90
14144;DHT22;7152;48.348;10.980;2023-06-19T00:10:05;21.20;77.40
14144;DHT22;7152;48.348;10.980;2023-06-19T00:12:32;21.10;78.20
14144;DHT22;7152;48.348;10.980;2023-06-19T00:14:58;21.00;78.80
14144;DHT22;7152;48.348;10.980;2023-06-19T00:17:24;20.90;79.10
14144;DHT22;7152;48.348;10.980;2023-06-19T00:19:52;20.90;79.90
14144;DHT22;7152;48.348;10.980;2023-06-19T00:22:18;20.80;80.30
14144;DHT22;7152;48.348;10.980;2023-06-19T00:24:44;20.80;80.40
14144;DHT22;7152;48.348;10.980;2023-06-19T00:27:10;20.70;80.30
14144;DHT22;7152;48.348;10.980;2023-06-19T00:29:36;20.70;80.30
14144;DHT22;7152;48.348;10.980;2023-06-19T00:32:02;20.70;81.20
14144;DHT22;7152;48.348;10.980;2023-06-19T00:34:29;20.60;81.70
14144;DHT22;7152;48.348;10.980;2023-06-19T00:36:56;20.60;82.20
14144;DHT22;7152;48.348;10.980;2023-06-19T00:39:23;20.50;82.30
14144;DHT22;7152;48.348;10.980;2023-06-19T00:41:55;20.50;82.70
14144;DHT22;7152;48.348;10.980;2023-06-19T00:44:21;20.50;83.50
14144;DHT22;7152;48.348;10.980;2023-06-19T00:47:00;20.40;83.60
14144;DHT22;7152;48.348;10.980;2023-06-19T00:49:27;20.40;83.90
14144;DHT22;7152;48.348;10.980;2023-06-19T00:51:54;20.30;83.90
14144;DHT22;7152;48.348;10.980;2023-06-19T00:54:20;20.20;83.80
14144;DHT22;7152;48.348;10.980;2023-06-19T00:56:46;20.20;83.80
14144;DHT22;7152;48.348;10.980;2023-06-19T00:59:17;20.20;84.00
14144;DHT22;7152;48.348;10.980;2023-06-19T01:01:44;20.10;84.40
14144;DHT22;7152;48.348;10.980;2023-06-19T01:04:10;20.10;84.10
14144;DHT22;7152;48.348;10.980;2023-06-19T01:09:17;20.10;84.90
14144;DHT22;7152;48.348;10.980;2023-06-19T01:11:47;20.00;85.40
14144;DHT22;7152;48.348;10.980;2023-06-19T01:14:18;20.00;85.20
14144;DHT22;7152;48.348;10.980;2023-06-19T01:16:45;20.00;85.50
14144;DHT22;7152;48.348;10.980;2023-06-19T01:19:17;20.00;85.40
14144;DHT22;7152;48.348;10.980;2023-06-19T01:21:44;19.90;86.00
14144;DHT22;7152;48.348;10.980;2023-06-19T01:24:14;19.80;86.50
14144;DHT22;7152;48.348;10.980;2023-06-19T01:26:40;19.80;86.50
14144;DHT22;7152;48.348;10.980;2023-06-19T01:29:06;19.80;85.70
14144;DHT22;7152;48.348;10.980;2023-06-19T01:31:48;19.80;85.30
14144;DHT22;7152;48.348;10.980;2023-06-19T01:34:17;19.90;86.00
14144;DHT22;7152;48.348;10.980;2023-06-19T01:36:47;19.90;85.50
14144;DHT22;7152;48.348;10.980;2023-06-19T01:39:16;20.00;85.50
14144;DHT22;7152;48.348;10.980;2023-06-19T01:41:43;20.00;85.50
14144;DHT22;7152;48.348;10.980;2023-06-19T01:44:09;20.00;85.60
14144;DHT22;7152;48.348;10.980;2023-06-19T01:46:36;20.10;85.60
14144;DHT22;7152;48.348;10.980;2023-06-19T01:49:07;20.10;85.20
14144;DHT22;7152;48.348;10.980;2023-06-19T01:51:34;20.20;85.20
14144;DHT22;7152;48.348;10.980;2023-06-19T01:54:00;20.20;85.40
14144;DHT22;7152;48.348;10.980;2023-06-19T01:56:26;20.20;85.60
14144;DHT22;7152;48.348;10.980;2023-06-19T01:58:51;20.20;85.40
14144;DHT22;7152;48.348;10.980;2023-06-19T02:01:17;20.20;85.70
14144;DHT22;7152;48.348;10.980;2023-06-19T02:03:43;20.20;85.70
14144;DHT22;7152;48.348;10.980;2023-06-19T02:06:09;20.30;85.80
14144;DHT22;7152;48.348;10.980;2023-06-19T02:08:35;20.30;85.70
14144;DHT22;7152;48.348;10.980;2023-06-19T02:11:00;20.30;86.30
14144;DHT22;7152;48.348;10.980;2023-06-19T02:13:26;20.30;86.40
14144;DHT22;7152;48.348;10.980;2023-06-19T02:15:52;20.30;86.30
14144;DHT22;7152;48.348;10.980;2023-06-19T02:18:18;20.30;86.30
14144;DHT22;7152;48.348;10.980;2023-06-19T02:20:44;20.30;86.30
14144;DHT22;7152;48.348;10.980;2023-06-19T02:23:12;20.30;86.40
14144;DHT22;7152;48.348;10.980;2023-06-19T02:25:37;20.30;86.50
14144;DHT22;7152;48.348;10.980;2023-06-19T02:28:03;20.30;86.30
14144;DHT22;7152;48.348;10.980;2023-06-19T02:30:29;20.30;86.60
14144;DHT22;7152;48.348;10.980;2023-06-19T02:32:55;20.30;86.60
14144;DHT22;7152;48.348;10.980;2023-06-19T02:35:21;20.30;86.90
14144;DHT22;7152;48.348;10.980;2023-06-19T02:37:47;20.30;87.00
14144;DHT22;7152;48.348;10.980;2023-06-19T02:40:13;20.30;87.40
14144;DHT22;7152;48.348;10.980;2023-06-19T02:42:40;20.30;87.70
14144;DHT22;7152;48.348;10.980;2023-06-19T02:45:06;20.20;88.00
14144;DHT22;7152;48.348;10.980;2023-06-19T02:47:35;20.20;87.90
14144;DHT22;7152;48.348;10.980;2023-06-19T02:50:02;20.20;87.90
14144;DHT22;7152;48.348;10.980;2023-06-19T02:52:29;20.20;88.20
14144;DHT22;7152;48.348;10.980;2023-06-19T02:54:55;20.20;88.50
14144;DHT22;7152;48.348;10.980;2023-06-19T02:57:21;20.20;89.00
14144;DHT22;7152;48.348;10.980;2023-06-19T02:59:47;20.20;89.40
14144;DHT22;7152;48.348;10.980;2023-06-19T03:02:14;20.10;89.60
14144;DHT22;7152;48.348;10.980;2023-06-19T03:04:43;20.10;90.20
14144;DHT22;7152;48.348;10.980;2023-06-19T03:07:09;20.00;90.10
14144;DHT22;7152;48.348;10.980;2023-06-19T03:09:36;20.00;90.20
14144;DHT22;7152;48.348;10.980;2023-06-19T03:12:02;20.00;90.50
14144;DHT22;7152;48.348;10.980;2023-06-19T03:14:28;19.90;90.70
14144;DHT22;7152;48.348;10.980;2023-06-19T03:16:54;19.90;90.90
14144;DHT22;7152;48.348;10.980;2023-06-19T03:19:20;19.90;91.10
14144;DHT22;7152;48.348;10.980;2023-06-19T03:21:47;19.80;91.30
14144;DHT22;7152;48.348;10.980;2023-06-19T03:24:13;19.80;91.50
14144;DHT22;7152;48.348;10.980;2023-06-19T03:26:39;19.80;91.50
14144;DHT22;7152;48.348;10.980;2023-06-19T03:29:06;19.80;91.80
14144;DHT22;7152;48.348;10.980;2023-06-19T03:31:51;19.90;91.80
14144;DHT22;7152;48.348;10.980;2023-06-19T03:34:18;19.90;91.90
14144;DHT22;7152;48.348;10.980;2023-06-19T03:36:44;19.90;92.10
14144;DHT22;7152;48.348;10.980;2023-06-19T03:39:13;20.00;92.20
14144;DHT22;7152;48.348;10.980;2023-06-19T03:41:40;20.00;92.50
14144;DHT22;7152;48.348;10.980;2023-06-19T03:44:07;20.00;92.50
14144;DHT22;7152;48.348;10.980;2023-06-19T03:46:33;20.00;92.70
14144;DHT22;7152;48.348;10.980;2023-06-19T03:48:58;20.00;93.00
14144;DHT22;7152;48.348;10.980;2023-06-19T03:51:27;19.90;93.30
14144;DHT22;7152;48.348;10.980;2023-06-19T03:53:54;19.90;93.70
14144;DHT22;7152;48.348;10.980;2023-06-19T03:56:20;19.90;93.70
14144;DHT22;7152;48.348;10.980;2023-06-19T03:58:46;19.90;94.20
14144;DHT22;7152;48.348;10.980;2023-06-19T04:01:12;20.00;94.30
14144;DHT22;7152;48.348;10.980;2023-06-19T04:03:38;19.90;94.80
14144;DHT22;7152;48.348;10.980;2023-06-19T04:06:04;19.90;94.90
14144;DHT22;7152;48.348;10.980;2023-06-19T04:08:29;19.90;95.50
14144;DHT22;7152;48.348;10.980;2023-06-19T04:10:55;20.00;95.50
14144;DHT22;7152;48.348;10.980;2023-06-19T04:13:21;20.00;95.70
14144;DHT22;7152;48.348;10.980;2023-06-19T04:15:47;20.10;95.80
14144;DHT22;7152;48.348;10.980;2023-06-19T04:18:13;20.10;95.80
14144;DHT22;7152;48.348;10.980;2023-06-19T04:20:39;20.20;96.00
14144;DHT22;7152;48.348;10.980;2023-06-19T04:23:05;20.20;96.30
14144;DHT22;7152;48.348;10.980;2023-06-19T04:25:31;20.20;96.40
14144;DHT22;7152;48.348;10.980;2023-06-19T04:27:57;20.20;96.50
14144;DHT22;7152;48.348;10.980;2023-06-19T04:30:25;20.20;96.50
14144;DHT22;7152;48.348;10.980;2023-06-19T04:32:51;20.20;96.90
14144;DHT22;7152;48.348;10.980;2023-06-19T04:35:18;20.20;97.00
14144;DHT22;7152;48.348;10.980;2023-06-19T04:37:44;20.20;97.30
14144;DHT22;7152;48.348;10.980;2023-06-19T04:40:10;20.20;98.30
14144;DHT22;7152;48.348;10.980;2023-06-19T04:42:36;20.10;99.00
14144;DHT22;7152;48.348;10.980;2023-06-19T04:45:04;20.00;99.70
14144;DHT22;7152;48.348;10.980;2023-06-19T04:47:33;20.00;99.90
14144;DHT22;7152;48.348;10.980;2023-06-19T04:50:00;19.90;99.90
14144;DHT22;7152;48.348;10.980;2023-06-19T04:52:26;19.90;99.90
14144;DHT22;7152;48.348;10.980;2023-06-19T04:54:51;19.80;99.90
14144;DHT22;7152;48.348;10.980;2023-06-19T04:57:17;19.80;99.90
14144;DHT22;7152;48.348;10.980;2023-06-19T04:59:43;19.80;99.90
14144;DHT22;7152;48.348;10.980;2023-06-19T05:02:10;19.70;99.90
14144;DHT22;7152;48.348;10.980;2023-06-19T05:04:36;19.80;99.90
14144;DHT22;7152;48.348;10.980;2023-06-19T05:07:02;19.80;99.90
14144;DHT22;7152;48.348;10.980;2023-06-19T05:09:28;19.90;99.90
14144;DHT22;7152;48.348;10.980;2023-06-19T05:11:55;20.00;99.90
14144;DHT22;7152;48.348;10.980;2023-06-19T05:14:20;20.10;99.90
14144;DHT22;7152;48.348;10.980;2023-06-19T05:16:46;20.20;99.90
14144;DHT22;7152;48.348;10.980;2023-06-19T05:19:12;20.30;99.90
14144;DHT22;7152;48.348;10.980;2023-06-19T05:21:38;20.30;99.90
14144;DHT22;7152;48.348;10.980;2023-06-19T05:24:04;20.40;99.90
14144;DHT22;7152;48.348;10.980;2023-06-19T05:26:30;20.50;99.90
14144;DHT22;7152;48.348;10.980;2023-06-19T05:28:55;20.50;99.90
14144;DHT22;7152;48.348;10.980;2023-06-19T05:31:21;20.60;99.90
14144;DHT22;7152;48.348;10.980;2023-06-19T05:33:47;20.50;99.90
14144;DHT22;7152;48.348;10.980;2023-06-19T05:36:13;20.50;99.90
14144;DHT22;7152;48.348;10.980;2023-06-19T05:38:38;20.50;99.90
14144;DHT22;7152;48.348;10.980;2023-06-19T05:41:04;20.50;99.90
14144;DHT22;7152;48.348;10.980;2023-06-19T05:43:30;20.40;99.90
14144;DHT22;7152;48.348;10.980;2023-06-19T05:45:57;20.50;99.90
14144;DHT22;7152;48.348;10.980;2023-06-19T05:48:25;20.50;99.90
14144;DHT22;7152;48.348;10.980;2023-06-19T05:50:51;20.60;99.90
14144;DHT22;7152;48.348;10.980;2023-06-19T05:53:17;20.70;99.90
14144;DHT22;7152;48.348;10.980;2023-06-19T05:55:43;20.80;99.90
14144;DHT22;7152;48.348;10.980;2023-06-19T05:58:09;21.00;99.90
14144;DHT22;7152;48.348;10.980;2023-06-19T06:00:35;21.20;99.90
14144;DHT22;7152;48.348;10.980;2023-06-19T06:03:01;21.50;99.90
14144;DHT22;7152;48.348;10.980;2023-06-19T06:05:28;21.70;99.90
14144;DHT22;7152;48.348;10.980;2023-06-19T06:07:54;22.00;99.90
14144;DHT22;7152;48.348;10.980;2023-06-19T06:10:22;22.20;99.90
14144;DHT22;7152;48.348;10.980;2023-06-19T06:12:51;22.40;99.90
14144;DHT22;7152;48.348;10.980;2023-06-19T06:15:17;22.50;99.90
14144;DHT22;7152;48.348;10.980;2023-06-19T06:17:43;22.70;99.90
14144;DHT22;7152;48.348;10.980;2023-06-19T06:20:09;22.80;99.90
14144;DHT22;7152;48.348;10.980;2023-06-19T06:22:39;23.00;99.90
14144;DHT22;7152;48.348;10.980;2023-06-19T06:25:06;23.00;99.90
14144;DHT22;7152;48.348;10.980;2023-06-19T06:27:32;23.10;99.90
14144;DHT22;7152;48.348;10.980;2023-06-19T06:29:58;23.10;99.90
14144;DHT22;7152;48.348;10.980;2023-06-19T06:32:24;23.20;99.90
14144;DHT22;7152;48.348;10.980;2023-06-19T06:34:51;23.30;99.90
14144;DHT22;7152;48.348;10.980;2023-06-19T06:37:17;23.40;99.90
14144;DHT22;7152;48.348;10.980;2023-06-19T06:39:48;23.60;99.90
14144;DHT22;7152;48.348;10.980;2023-06-19T06:42:16;23.70;99.90
14144;DHT22;7152;48.348;10.980;2023-06-19T06:44:43;23.70;99.90
14144;DHT22;7152;48.348;10.980;2023-06-19T06:47:09;23.70;99.90
14144;DHT22;7152;48.348;10.980;2023-06-19T06:49:35;23.70;99.90
14144;DHT22;7152;48.348;10.980;2023-06-19T06:52:05;23.60;99.90
14144;DHT22;7152;48.348;10.980;2023-06-19T06:54:31;23.60;99.90
14144;DHT22;7152;48.348;10.980;2023-06-19T06:56:57;23.60;99.90
14144;DHT22;7152;48.348;10.980;2023-06-19T06:59:27;23.60;99.90
14144;DHT22;7152;48.348;10.980;2023-06-19T07:01:54;23.70;99.90
14144;DHT22;7152;48.348;10.980;2023-06-19T07:04:20;23.70;99.90
14144;DHT22;7152;48.348;10.980;2023-06-19T07:06:46;23.80;99.90
14144;DHT22;7152;48.348;10.980;2023-06-19T07:09:12;23.80;99.90
14144;DHT22;7152;48.348;10.980;2023-06-19T07:11:38;24.00;99.90
14144;DHT22;7152;48.348;10.980;2023-06-19T07:14:04;24.00;99.90
14144;DHT22;7152;48.348;10.980;2023-06-19T07:16:29;24.10;99.70
14144;DHT22;7152;48.348;10.980;2023-06-19T07:18:55;24.20;99.60
14144;DHT22;7152;48.348;10.980;2023-06-19T07:21:21;24.30;99.80
14144;DHT22;7152;48.348;10.980;2023-06-19T07:23:48;24.40;99.90
14144;DHT22;7152;48.348;10.980;2023-06-19T07:26:14;24.50;99.60
14144;DHT22;7152;48.348;10.980;2023-06-19T07:28:41;24.60;99.70
14144;DHT22;7152;48.348;10.980;2023-06-19T07:31:06;24.80;99.90
14144;DHT22;7152;48.348;10.980;2023-06-19T07:33:32;24.90;99.80
14144;DHT22;7152;48.348;10.980;2023-06-19T07:35:58;25.10;99.40
14144;DHT22;7152;48.348;10.980;2023-06-19T07:38:24;25.20;99.50
14144;DHT22;7152;48.348;10.980;2023-06-19T07:40:50;25.20;99.30
14144;DHT22;7152;48.348;10.980;2023-06-19T07:43:16;25.10;99.00
14144;DHT22;7152;48.348;10.980;2023-06-19T07:45:43;25.00;98.70
14144;DHT22;7152;48.348;10.980;2023-06-19T07:48:09;24.80;98.70
14144;DHT22;7152;48.348;10.980;2023-06-19T07:50:34;24.70;98.60
14144;DHT22;7152;48.348;10.980;2023-06-19T07:53:00;24.60;98.20
14144;DHT22;7152;48.348;10.980;2023-06-19T07:55:26;24.40;98.30
14144;DHT22;7152;48.348;10.980;2023-06-19T07:57:52;24.40;98.20
14144;DHT22;7152;48.348;10.980;2023-06-19T08:00:23;24.30;98.20
14144;DHT22;7152;48.348;10.980;2023-06-19T08:02:50;24.30;98.30
14144;DHT22;7152;48.348;10.980;2023-06-19T08:05:15;24.10;98.60
14144;DHT22;7152;48.348;10.980;2023-06-19T08:07:41;24.10;98.90
14144;DHT22;7152;48.348;10.980;2023-06-19T08:10:08;24.00;99.10
14144;DHT22;7152;48.348;10.980;2023-06-19T08:12:34;24.10;99.40
14144;DHT22;7152;48.348;10.980;2023-06-19T08:15:00;24.10;99.50
14144;DHT22;7152;48.348;10.980;2023-06-19T08:17:26;24.20;99.70
14144;DHT22;7152;48.348;10.980;2023-06-19T08:19:51;24.20;99.60
14144;DHT22;7152;48.348;10.980;2023-06-19T08:22:17;24.30;99.60
14144;DHT22;7152;48.348;10.980;2023-06-19T08:24:43;24.50;99.70
14144;DHT22;7152;48.348;10.980;2023-06-19T08:27:12;24.60;99.70
14144;DHT22;7152;48.348;10.980;2023-06-19T08:29:37;24.70;99.60
14144;DHT22;7152;48.348;10.980;2023-06-19T08:32:04;24.80;99.50
14144;DHT22;7152;48.348;10.980;2023-06-19T08:34:30;25.00;99.60
14144;DHT22;7152;48.348;10.980;2023-06-19T08:36:57;25.20;99.20
14144;DHT22;7152;48.348;10.980;2023-06-19T08:39:23;25.40;99.40
14144;DHT22;7152;48.348;10.980;2023-06-19T08:41:48;25.50;98.90
14144;DHT22;7152;48.348;10.980;2023-06-19T08:44:14;25.60;98.90
14144;DHT22;7152;48.348;10.980;2023-06-19T08:46:41;25.50;98.80
14144;DHT22;7152;48.348;10.980;2023-06-19T08:49:10;25.60;98.50
14144;DHT22;7152;48.348;10.980;2023-06-19T08:51:37;25.80;98.50
14144;DHT22;7152;48.348;10.980;2023-06-19T08:54:06;26.10;98.50
14144;DHT22;7152;48.348;10.980;2023-06-19T08:56:35;26.20;98.30
14144;DHT22;7152;48.348;10.980;2023-06-19T08:59:18;26.30;98.10
14144;DHT22;7152;48.348;10.980;2023-06-19T09:01:51;26.40;98.00
14144;DHT22;7152;48.348;10.980;2023-06-19T09:04:24;26.30;97.70
14144;DHT22;7152;48.348;10.980;2023-06-19T09:06:55;26.40;97.70
14144;DHT22;7152;48.348;10.980;2023-06-19T09:09:23;26.60;97.80
14144;DHT22;7152;48.348;10.980;2023-06-19T09:12:04;26.70;97.80
14144;DHT22;7152;48.348;10.980;2023-06-19T09:17:00;26.90;97.30
14144;DHT22;7152;48.348;10.980;2023-06-19T09:19:26;26.80;97.30
14144;DHT22;7152;48.348;10.980;2023-06-19T09:21:52;26.70;97.30
14144;DHT22;7152;48.348;10.980;2023-06-19T09:24:18;26.70;97.20
14144;DHT22;7152;48.348;10.980;2023-06-19T09:26:43;26.70;97.50
14144;DHT22;7152;48.348;10.980;2023-06-19T09:29:14;26.70;97.10
14144;DHT22;7152;48.348;10.980;2023-06-19T09:31:41;26.80;97.30
14144;DHT22;7152;48.348;10.980;2023-06-19T09:34:08;27.00;97.30
14144;DHT22;7152;48.348;10.980;2023-06-19T09:36:35;27.40;97.00
14144;DHT22;7152;48.348;10.980;2023-06-19T09:39:04;27.90;96.90
14144;DHT22;7152;48.348;10.980;2023-06-19T09:41:31;28.60;96.40
14144;DHT22;7152;48.348;10.980;2023-06-19T09:43:58;28.80;95.10
14144;DHT22;7152;48.348;10.980;2023-06-19T09:46:36;28.80;95.30
14144;DHT22;7152;48.348;10.980;2023-06-19T09:49:04;28.90;95.10
14144;DHT22;7152;48.348;10.980;2023-06-19T09:51:33;28.80;94.50
14144;DHT22;7152;48.348;10.980;2023-06-19T09:54:02;28.60;93.90
14144;DHT22;7152;48.348;10.980;2023-06-19T09:56:30;28.30;94.30
14144;DHT22;7152;48.348;10.980;2023-06-19T09:58:57;27.90;94.40
14144;DHT22;7152;48.348;10.980;2023-06-19T10:01:30;27.70;94.80
14144;DHT22;7152;48.348;10.980;2023-06-19T10:04:07;27.50;94.60
14144;DHT22;7152;48.348;10.980;2023-06-19T10:06:42;27.40;94.70
14144;DHT22;7152;48.348;10.980;2023-06-19T10:09:09;27.30;94.90
14144;DHT22;7152;48.348;10.980;2023-06-19T10:11:51;27.20;94.80
14144;DHT22;7152;48.348;10.980;2023-06-19T10:14:21;27.30;95.00
14144;DHT22;7152;48.348;10.980;2023-06-19T10:16:48;27.30;95.30
14144;DHT22;7152;48.348;10.980;2023-06-19T10:19:16;27.50;95.00
14144;DHT22;7152;48.348;10.980;2023-06-19T10:21:46;27.60;94.70
14144;DHT22;7152;48.348;10.980;2023-06-19T10:24:17;27.90;94.70
14144;DHT22;7152;48.348;10.980;2023-06-19T10:27:00;28.20;94.60
14144;DHT22;7152;48.348;10.980;2023-06-19T10:29:37;28.50;94.40
14144;DHT22;7152;48.348;10.980;2023-06-19T10:32:03;28.80;93.80
14144;DHT22;7152;48.348;10.980;2023-06-19T10:34:36;28.90;93.20
14144;DHT22;7152;48.348;10.980;2023-06-19T10:37:02;29.40;92.60
14144;DHT22;7152;48.348;10.980;2023-06-19T10:39:28;29.50;92.10
14144;DHT22;7152;48.348;10.980;2023-06-19T10:41:54;29.90;91.90
14144;DHT22;7152;48.348;10.980;2023-06-19T10:44:23;30.40;91.50
14144;DHT22;7152;48.348;10.980;2023-06-19T10:46:52;30.60;91.50
14144;DHT22;7152;48.348;10.980;2023-06-19T10:49:18;30.70;90.90
14144;DHT22;7152;48.348;10.980;2023-06-19T10:51:44;30.70;90.40
14144;DHT22;7152;48.348;10.980;2023-06-19T10:54:10;30.30;90.30
14144;DHT22;7152;48.348;10.980;2023-06-19T10:56:36;30.20;90.20
14144;DHT22;7152;48.348;10.980;2023-06-19T10:59:07;30.40;90.20
14144;DHT22;7152;48.348;10.980;2023-06-19T11:01:39;30.90;90.20
14144;DHT22;7152;48.348;10.980;2023-06-19T11:04:09;31.50;89.60
14144;DHT22;7152;48.348;10.980;2023-06-19T11:06:36;31.80;87.60
14144;DHT22;7152;48.348;10.980;2023-06-19T11:09:07;32.10;86.20
14144;DHT22;7152;48.348;10.980;2023-06-19T11:14:06;32.60;83.90
14144;DHT22;7152;48.348;10.980;2023-06-19T11:16:38;32.70;83.20
14144;DHT22;7152;48.348;10.980;2023-06-19T11:19:13;32.70;82.10
14144;DHT22;7152;48.348;10.980;2023-06-19T11:21:39;32.90;81.60
14144;DHT22;7152;48.348;10.980;2023-06-19T11:24:13;32.90;80.60
14144;DHT22;7152;48.348;10.980;2023-06-19T11:26:44;33.20;79.90
14144;DHT22;7152;48.348;10.980;2023-06-19T11:29:23;33.60;79.30
14144;DHT22;7152;48.348;10.980;2023-06-19T11:31:49;33.90;77.70
14144;DHT22;7152;48.348;10.980;2023-06-19T11:34:17;34.00;78.30
14144;DHT22;7152;48.348;10.980;2023-06-19T11:36:43;34.20;77.10
14144;DHT22;7152;48.348;10.980;2023-06-19T11:39:14;34.50;76.60
14144;DHT22;7152;48.348;10.980;2023-06-19T11:41:42;35.10;74.30
14144;DHT22;7152;48.348;10.980;2023-06-19T11:44:09;35.70;73.60
14144;DHT22;7152;48.348;10.980;2023-06-19T11:46:36;36.30;72.40
14144;DHT22;7152;48.348;10.980;2023-06-19T11:49:17;36.60;70.30
14144;DHT22;7152;48.348;10.980;2023-06-19T11:51:47;36.80;66.80
14144;DHT22;7152;48.348;10.980;2023-06-19T11:54:14;37.20;66.50
14144;DHT22;7152;48.348;10.980;2023-06-19T11:56:41;37.40;65.30
14144;DHT22;7152;48.348;10.980;2023-06-19T11:59:08;37.40;63.30
14144;DHT22;7152;48.348;10.980;2023-06-19T12:01:35;37.60;62.90
14144;DHT22;7152;48.348;10.980;2023-06-19T12:04:02;37.50;62.90
14144;DHT22;7152;48.348;10.980;2023-06-19T12:06:29;37.30;62.90
14144;DHT22;7152;48.348;10.980;2023-06-19T12:08:55;37.70;63.50
14144;DHT22;7152;48.348;10.980;2023-06-19T12:11:21;38.00;62.80
14144;DHT22;7152;48.348;10.980;2023-06-19T12:13:50;38.20;61.60
14144;DHT22;7152;48.348;10.980;2023-06-19T12:16:16;38.00;60.50
14144;DHT22;7152;48.348;10.980;2023-06-19T12:18:42;38.20;60.20
14144;DHT22;7152;48.348;10.980;2023-06-19T12:21:08;38.30;59.20
14144;DHT22;7152;48.348;10.980;2023-06-19T12:23:34;38.20;58.60
14144;DHT22;7152;48.348;10.980;2023-06-19T12:26:00;38.30;59.20
14144;DHT22;7152;48.348;10.980;2023-06-19T12:28:26;38.60;59.00
14144;DHT22;7152;48.348;10.980;2023-06-19T12:30:52;38.70;58.40
14144;DHT22;7152;48.348;10.980;2023-06-19T12:33:19;39.20;58.10
14144;DHT22;7152;48.348;10.980;2023-06-19T12:35:47;39.60;57.90
14144;DHT22;7152;48.348;10.980;2023-06-19T12:38:13;40.00;57.50
14144;DHT22;7152;48.348;10.980;2023-06-19T12:40:39;40.40;57.60
14144;DHT22;7152;48.348;10.980;2023-06-19T12:43:06;40.70;56.00
14144;DHT22;7152;48.348;10.980;2023-06-19T12:45:32;40.90;55.10
14144;DHT22;7152;48.348;10.980;2023-06-19T12:47:58;41.10;54.60
14144;DHT22;7152;48.348;10.980;2023-06-19T12:50:24;41.10;54.50
14144;DHT22;7152;48.348;10.980;2023-06-19T12:52:50;41.40;54.30
14144;DHT22;7152;48.348;10.980;2023-06-19T12:55:16;41.60;53.50
14144;DHT22;7152;48.348;10.980;2023-06-19T12:57:42;41.50;53.30
14144;DHT22;7152;48.348;10.980;2023-06-19T13:00:11;41.70;52.70
14144;DHT22;7152;48.348;10.980;2023-06-19T13:02:40;41.70;51.90
14144;DHT22;7152;48.348;10.980;2023-06-19T13:05:09;42.10;52.00
14144;DHT22;7152;48.348;10.980;2023-06-19T13:07:36;42.20;51.30
14144;DHT22;7152;48.348;10.980;2023-06-19T13:10:02;42.60;50.70
14144;DHT22;7152;48.348;10.980;2023-06-19T13:12:30;42.70;50.80
14144;DHT22;7152;48.348;10.980;2023-06-19T13:14:56;42.90;51.00
14144;DHT22;7152;48.348;10.980;2023-06-19T13:17:21;42.90;50.50
14144;DHT22;7152;48.348;10.980;2023-06-19T13:19:47;42.70;50.00
14144;DHT22;7152;48.348;10.980;2023-06-19T13:22:13;43.00;49.80
14144;DHT22;7152;48.348;10.980;2023-06-19T13:24:39;42.70;49.40
14144;DHT22;7152;48.348;10.980;2023-06-19T13:27:05;42.60;48.90
14144;DHT22;7152;48.348;10.980;2023-06-19T13:29:31;42.80;49.00
14144;DHT22;7152;48.348;10.980;2023-06-19T13:31:56;42.90;48.30
14144;DHT22;7152;48.348;10.980;2023-06-19T13:34:22;43.00;48.30
14144;DHT22;7152;48.348;10.980;2023-06-19T13:36:48;42.90;48.90
14144;DHT22;7152;48.348;10.980;2023-06-19T13:39:14;41.90;49.00
14144;DHT22;7152;48.348;10.980;2023-06-19T13:41:40;40.50;49.70
14144;DHT22;7152;48.348;10.980;2023-06-19T13:44:06;39.50;50.60
14144;DHT22;7152;48.348;10.980;2023-06-19T13:46:32;38.50;50.70
14144;DHT22;7152;48.348;10.980;2023-06-19T13:48:58;38.40;51.40
14144;DHT22;7152;48.348;10.980;2023-06-19T13:51:24;38.90;51.30
14144;DHT22;7152;48.348;10.980;2023-06-19T13:53:51;39.70;50.70
14144;DHT22;7152;48.348;10.980;2023-06-19T13:56:17;40.80;50.50
14144;DHT22;7152;48.348;10.980;2023-06-19T13:58:43;41.70;50.00
14144;DHT22;7152;48.348;10.980;2023-06-19T14:01:09;42.30;49.30
14144;DHT22;7152;48.348;10.980;2023-06-19T14:03:37;42.90;48.80
14144;DHT22;7152;48.348;10.980;2023-06-19T14:06:03;43.20;48.10
14144;DHT22;7152;48.348;10.980;2023-06-19T14:08:29;43.50;48.20
14144;DHT22;7152;48.348;10.980;2023-06-19T14:10:55;42.80;48.00
14144;DHT22;7152;48.348;10.980;2023-06-19T14:13:21;41.50;47.80
14144;DHT22;7152;48.348;10.980;2023-06-19T14:15:47;40.80;48.80
14144;DHT22;7152;48.348;10.980;2023-06-19T14:18:13;40.70;48.80
14144;DHT22;7152;48.348;10.980;2023-06-19T14:20:39;40.60;48.80
14144;DHT22;7152;48.348;10.980;2023-06-19T14:23:07;40.80;47.80
14144;DHT22;7152;48.348;10.980;2023-06-19T14:25:34;41.30;48.90
14144;DHT22;7152;48.348;10.980;2023-06-19T14:28:00;40.90;48.60
14144;DHT22;7152;48.348;10.980;2023-06-19T14:30:25;40.50;49.00
14144;DHT22;7152;48.348;10.980;2023-06-19T14:32:51;40.20;49.10
14144;DHT22;7152;48.348;10.980;2023-06-19T14:35:17;41.10;49.00
14144;DHT22;7152;48.348;10.980;2023-06-19T14:37:43;41.90;48.40
14144;DHT22;7152;48.348;10.980;2023-06-19T14:40:09;42.60;47.40
14144;DHT22;7152;48.348;10.980;2023-06-19T14:42:35;43.10;47.00
14144;DHT22;7152;48.348;10.980;2023-06-19T14:45:04;43.40;46.60
14144;DHT22;7152;48.348;10.980;2023-06-19T14:47:30;43.70;46.20
14144;DHT22;7152;48.348;10.980;2023-06-19T14:49:56;43.80;46.20
14144;DHT22;7152;48.348;10.980;2023-06-19T14:52:22;43.60;46.40
14144;DHT22;7152;48.348;10.980;2023-06-19T14:54:48;43.60;46.60
14144;DHT22;7152;48.348;10.980;2023-06-19T14:57:13;43.70;46.20
14144;DHT22;7152;48.348;10.980;2023-06-19T14:59:39;43.70;45.90
14144;DHT22;7152;48.348;10.980;2023-06-19T15:02:05;44.00;45.90
14144;DHT22;7152;48.348;10.980;2023-06-19T15:04:37;44.20;46.70
14144;DHT22;7152;48.348;10.980;2023-06-19T15:07:04;44.20;46.10
14144;DHT22;7152;48.348;10.980;2023-06-19T15:09:30;44.50;45.70
14144;DHT22;7152;48.348;10.980;2023-06-19T15:11:55;44.70;46.40
14144;DHT22;7152;48.348;10.980;2023-06-19T15:14:21;44.90;46.50
14144;DHT22;7152;48.348;10.980;2023-06-19T15:16:47;45.10;45.40
14144;DHT22;7152;48.348;10.980;2023-06-19T15:19:13;44.90;44.30
14144;DHT22;7152;48.348;10.980;2023-06-19T15:21:40;44.70;44.20
14144;DHT22;7152;48.348;10.980;2023-06-19T15:24:07;44.60;44.50
14144;DHT22;7152;48.348;10.980;2023-06-19T15:26:34;44.60;44.20
14144;DHT22;7152;48.348;10.980;2023-06-19T15:29:00;44.70;44.50
14144;DHT22;7152;48.348;10.980;2023-06-19T15:31:26;44.50;44.00
14144;DHT22;7152;48.348;10.980;2023-06-19T15:33:51;44.50;43.40
14144;DHT22;7152;48.348;10.980;2023-06-19T15:36:17;44.60;43.90